createdAt,value
2023-04-03T00:00:47.332Z,3.57
2023-04-03T00:05:50.047Z,5.62
2023-04-03T00:10:52.580Z,4.00
2023-04-03T00:15:54.955Z,5.70
2023-04-03T00:20:57.406Z,4.83
2023-04-03T00:25:59.763Z,6.42
2023-04-03T00:31:02.186Z,6.39
2023-04-03T00:36:11.816Z,6.39
2023-04-03T00:41:14.135Z,6.52
2023-04-03T00:46:35.106Z,6.35
2023-04-03T00:51:40.745Z,4.72
2023-04-03T00:56:43.128Z,5.55
2023-04-03T01:01:46.064Z,4.61
2023-04-03T01:06:48.569Z,4.44
2023-04-03T01:11:51.066Z,5.95
2023-04-03T01:16:56.740Z,6.14
2023-04-03T01:22:13.034Z,5.69
2023-04-03T01:27:15.418Z,6.27
2023-04-03T01:32:17.947Z,6.27
2023-04-03T01:37:20.411Z,6.14
2023-04-03T01:42:23.664Z,6.28
2023-04-03T01:47:26.225Z,5.76
2023-04-03T01:52:28.776Z,6.25
2023-04-03T01:57:31.639Z,5.89
2023-04-03T02:02:34.490Z,6.12
2023-04-03T02:07:37.024Z,5.54
2023-04-03T02:12:39.529Z,5.94
2023-04-03T02:17:41.892Z,5.95
2023-04-03T02:22:44.325Z,5.57
2023-04-03T02:27:46.611Z,5.94
2023-04-03T02:32:49.021Z,6.23
2023-04-03T02:37:51.501Z,5.91
2023-04-03T02:42:53.887Z,6.23
2023-04-03T02:47:57.379Z,6.25
2023-04-03T02:52:59.783Z,5.91
2023-04-03T02:58:02.262Z,5.80
2023-04-03T03:03:05.154Z,6.00
2023-04-03T03:08:07.713Z,6.07
2023-04-03T03:13:10.056Z,6.05
2023-04-03T03:18:12.345Z,6.16
2023-04-03T03:23:14.757Z,6.01
2023-04-03T03:28:17.118Z,5.98
2023-04-03T03:33:21.775Z,6.12
2023-04-03T03:38:28.511Z,6.12
2023-04-03T03:43:33.420Z,6.11
2023-04-03T03:48:36.041Z,2.81
2023-04-03T03:53:38.565Z,3.15
2023-04-03T03:58:44.963Z,3.04
2023-04-03T04:03:48.804Z,5.51
2023-04-03T04:08:55.790Z,5.65
2023-04-03T04:13:58.125Z,5.82
2023-04-03T04:19:03.138Z,6.16
2023-04-03T04:24:07.565Z,5.09
2023-04-03T04:29:11.477Z,6.20
2023-04-03T04:34:14.456Z,6.14
2023-04-03T04:39:16.864Z,5.96
2023-04-03T04:44:19.359Z,6.29
2023-04-03T04:49:21.844Z,5.61
2023-04-03T04:54:24.862Z,6.36
2023-04-03T04:59:28.381Z,5.21
2023-04-03T05:04:34.580Z,5.39
2023-04-03T05:09:44.565Z,5.67
2023-04-03T05:14:49.129Z,6.13
2023-04-03T05:19:52.294Z,6.68
2023-04-03T05:24:56.939Z,6.07
2023-04-03T05:30:01.092Z,6.14
2023-04-03T05:35:07.134Z,5.34
2023-04-03T05:40:10.519Z,6.98
2023-04-03T05:45:16.796Z,6.18
2023-04-03T05:50:19.478Z,4.10
2023-04-03T05:55:25.161Z,5.56
2023-04-03T06:00:29.597Z,6.91
2023-04-03T06:05:37.785Z,6.59
2023-04-03T06:10:40.568Z,7.37
2023-04-03T06:15:43.225Z,7.55
2023-04-03T06:20:45.872Z,7.62
2023-04-03T06:25:48.430Z,7.68
2023-04-03T06:30:50.846Z,7.36
2023-04-03T06:36:00.387Z,7.80
2023-04-03T06:41:02.669Z,8.00
2023-04-03T06:46:05.161Z,7.95
2023-04-03T06:51:08.153Z,7.76
2023-04-03T06:56:11.087Z,8.04
2023-04-03T07:01:15.207Z,8.00
2023-04-03T07:06:19.235Z,8.24
2023-04-03T07:11:21.838Z,7.86
2023-04-03T07:16:24.246Z,8.36
2023-04-03T07:21:27.048Z,8.41
2023-04-03T07:26:29.651Z,8.44
2023-04-03T07:31:32.315Z,7.07
2023-04-03T07:36:34.862Z,6.92
2023-04-03T07:41:37.223Z,7.67
2023-04-03T07:46:40.114Z,8.60
2023-04-03T07:51:43.221Z,8.09
2023-04-03T07:56:46.490Z,8.47
2023-04-03T08:01:48.865Z,8.87
2023-04-03T08:06:51.453Z,8.97
2023-04-03T08:11:54.838Z,9.01
2023-04-03T08:16:58.017Z,8.86
2023-04-03T08:22:01.896Z,7.41
2023-04-03T08:27:05.901Z,9.74
2023-04-03T08:32:08.362Z,9.20
2023-04-03T08:37:10.894Z,7.35
2023-04-03T08:42:32.450Z,10.33
2023-04-03T08:47:48.939Z,9.74
2023-04-03T08:52:57.819Z,9.56
2023-04-03T08:58:08.126Z,10.52
2023-04-03T09:03:15.496Z,10.51
2023-04-03T09:08:31.410Z,10.51
2023-04-03T09:13:58.257Z,10.57
2023-04-03T09:19:17.269Z,9.14
2023-04-03T09:24:20.522Z,10.18
2023-04-03T09:29:24.375Z,10.20
2023-04-03T09:34:38.992Z,10.45
2023-04-03T09:39:54.840Z,10.50
2023-04-03T09:45:02.440Z,10.36
2023-04-03T09:50:15.360Z,10.80
2023-04-03T09:55:31.026Z,10.29
2023-04-03T10:00:37.269Z,10.88
2023-04-03T10:05:42.377Z,10.41
2023-04-03T10:10:50.273Z,10.79
2023-04-03T10:16:03.599Z,10.80
2023-04-03T10:21:27.485Z,11.04
2023-04-03T10:26:38.884Z,10.90
2023-04-03T10:31:56.798Z,11.09
2023-04-03T10:37:17.793Z,11.05
2023-04-03T10:42:29.541Z,10.62
2023-04-03T10:47:52.989Z,11.02
2023-04-03T10:53:07.703Z,11.24
2023-04-03T10:58:20.870Z,10.49
2023-04-03T11:03:33.356Z,11.12
2023-04-03T11:09:08.138Z,11.34
2023-04-03T11:14:23.185Z,11.01
2023-04-03T11:19:36.623Z,10.87
2023-04-03T11:24:41.366Z,10.26
2023-04-03T11:29:46.747Z,11.25
2023-04-03T11:34:55.468Z,11.32
2023-04-03T11:40:00.313Z,11.47
2023-04-03T11:45:31.278Z,11.56
2023-04-03T11:50:36.911Z,11.55
2023-04-03T11:55:45.404Z,11.56
2023-04-03T12:00:52.146Z,11.57
2023-04-03T12:06:15.734Z,11.64
2023-04-03T12:11:32.017Z,11.66
2023-04-03T12:16:40.763Z,11.64
2023-04-03T12:21:46.944Z,11.62
2023-04-03T12:27:19.652Z,11.67
2023-04-03T12:32:37.903Z,11.61
2023-04-03T12:37:59.579Z,11.56
2023-04-03T12:43:20.186Z,11.53
2023-04-03T12:48:27.393Z,11.37
2023-04-03T12:53:37.433Z,10.80
2023-04-03T12:58:39.839Z,10.38
2023-04-03T13:03:45.455Z,11.01
2023-04-03T13:09:15.305Z,11.40
2023-04-03T13:14:21.334Z,11.38
2023-04-03T13:19:29.639Z,11.23
2023-04-03T13:24:35.169Z,10.91
2023-04-03T13:29:39.225Z,10.40
2023-04-03T13:34:47.467Z,9.19
2023-04-03T13:40:03.960Z,10.58
2023-04-03T13:45:29.772Z,11.26
2023-04-03T13:50:32.258Z,11.05
2023-04-03T13:55:37.577Z,11.13
2023-04-03T14:01:01.971Z,11.18
2023-04-03T14:06:06.829Z,9.88
2023-04-03T14:11:35.766Z,10.75
2023-04-03T14:16:42.254Z,10.89
2023-04-03T14:21:44.646Z,10.82
2023-04-03T14:26:47.914Z,10.24
2023-04-03T14:31:57.828Z,9.88
2023-04-03T14:37:10.480Z,10.51
2023-04-03T14:42:20.713Z,9.81
2023-04-03T14:47:31.099Z,9.60
2023-04-03T14:52:37.156Z,10.43
2023-04-03T14:57:40.919Z,9.25
2023-04-03T15:02:43.727Z,10.01
2023-04-03T15:07:51.522Z,9.74
2023-04-03T15:12:54.528Z,10.23
2023-04-03T15:23:34.025Z,9.58
2023-04-03T15:28:40.131Z,10.05
2023-04-03T15:33:42.591Z,9.74
2023-04-03T15:38:45.086Z,9.96
2023-04-03T15:43:47.631Z,8.84
2023-04-03T15:48:50.957Z,9.71
2023-04-03T15:53:53.344Z,9.46
2023-04-03T15:58:55.873Z,9.51
2023-04-03T16:03:58.345Z,9.23
2023-04-03T16:09:02.038Z,9.16
2023-04-03T16:14:04.420Z,9.07
2023-04-03T16:19:07.227Z,8.79
2023-04-03T16:24:10.152Z,8.72
2023-04-03T16:29:12.514Z,9.46
2023-04-03T16:34:15.109Z,9.30
2023-04-03T16:39:17.879Z,8.90
2023-04-03T16:44:20.282Z,8.88
2023-04-03T16:49:22.706Z,9.15
2023-04-03T16:54:25.339Z,9.23
2023-04-03T16:59:27.938Z,8.55
2023-04-03T17:04:30.428Z,9.01
2023-04-03T17:09:34.126Z,8.66
2023-04-03T17:14:36.780Z,8.80
2023-04-03T17:19:39.452Z,8.88
2023-04-03T17:24:44.247Z,8.77
2023-04-03T17:29:46.546Z,8.80
2023-04-03T17:34:49.307Z,8.90
2023-04-03T17:39:51.678Z,8.88
2023-04-03T17:44:54.321Z,8.43
2023-04-03T17:49:56.704Z,8.82
2023-04-03T17:54:59.195Z,7.49
2023-04-03T18:00:03.909Z,7.91
2023-04-03T18:05:17.116Z,8.42
2023-04-03T18:10:20.702Z,8.70
2023-04-03T18:15:27.827Z,8.23
2023-04-03T18:20:33.960Z,8.63
2023-04-03T18:25:38.309Z,8.58
2023-04-03T18:30:42.949Z,8.57
2023-04-03T18:35:45.692Z,7.87
2023-04-03T18:40:50.497Z,8.20
2023-04-03T18:45:56.479Z,8.10
2023-04-03T18:50:58.938Z,8.45
2023-04-03T18:56:04.470Z,7.99
2023-04-03T19:01:20.338Z,3.98
2023-04-03T19:06:24.122Z,5.97
2023-04-03T19:11:29.647Z,7.90
2023-04-03T19:16:34.054Z,7.97
2023-04-03T19:21:41.470Z,7.13
2023-04-03T19:26:44.474Z,8.09
2023-04-03T19:31:46.894Z,8.07
2023-04-03T19:36:52.780Z,7.92
2023-04-03T19:41:56.835Z,7.94
2023-04-03T19:47:00.006Z,8.11
2023-04-03T19:52:02.540Z,8.09
2023-04-03T19:57:05.035Z,7.94
2023-04-03T20:02:11.969Z,7.85
2023-04-03T20:07:21.758Z,6.88
2023-04-03T20:12:27.335Z,6.03
2023-04-03T20:17:33.646Z,4.05
2023-04-03T20:22:37.726Z,7.50
2023-04-03T20:27:40.797Z,7.31
2023-04-03T20:32:48.846Z,6.88
2023-04-03T20:37:51.395Z,6.69
2023-04-03T20:42:55.185Z,7.87
2023-04-03T20:47:57.591Z,7.83
2023-04-03T20:53:00.955Z,7.50
2023-04-03T20:58:03.956Z,7.79
2023-04-03T21:03:06.842Z,7.36
2023-04-03T21:08:46.660Z,7.81
2023-04-03T21:14:31.779Z,7.81
2023-04-03T21:19:34.100Z,7.38
2023-04-03T21:24:36.622Z,7.65
2023-04-03T21:29:39.265Z,7.08
2023-04-03T21:34:41.578Z,7.09
2023-04-03T21:39:44.200Z,6.97
2023-04-03T21:44:50.126Z,6.76
2023-04-03T21:49:52.795Z,5.25
2023-04-03T21:54:55.283Z,5.34
2023-04-03T21:59:57.790Z,6.39
2023-04-03T22:05:00.462Z,7.00
2023-04-03T22:10:03.239Z,7.36
2023-04-03T22:15:06.645Z,6.94
2023-04-03T22:20:09.930Z,7.06
2023-04-03T22:25:12.676Z,6.72
2023-04-03T22:30:15.243Z,7.27
2023-04-03T22:35:17.627Z,6.52
2023-04-03T22:40:19.992Z,6.28
2023-04-03T22:45:22.623Z,7.21
2023-04-03T22:50:25.228Z,7.19
2023-04-03T22:55:27.708Z,6.22
2023-04-03T23:00:30.189Z,6.97
2023-04-03T23:05:32.766Z,6.81
2023-04-03T23:10:35.203Z,7.01
2023-04-03T23:15:37.633Z,6.56
2023-04-03T23:20:40.070Z,6.72
2023-04-03T23:25:42.660Z,7.01
2023-04-03T23:30:46.443Z,6.96
2023-04-03T23:35:49.413Z,6.62
2023-04-03T23:40:51.970Z,6.01
2023-04-03T23:45:54.969Z,6.69
2023-04-03T23:50:57.316Z,6.62
2023-04-03T23:55:59.848Z,6.74
